sensor_id;sensor_type;location;lat;lon;timestamp;pressure;altitude;pressure_sealevel;temperature;humidity
26531;BME280;14201;43.188;24.160;2023-07-29T00:00:19;99353.22;;;20.13;65.68
26531;BME280;14201;43.188;24.160;2023-07-29T00:02:45;99353.22;;;20.19;65.40
26531;BME280;14201;43.188;24.160;2023-07-29T00:05:11;99356.78;;;20.11;65.52
26531;BME280;14201;43.188;24.160;2023-07-29T00:07:36;99361.16;;;20.12;65.48
26531;BME280;14201;43.188;24.160;2023-07-29T00:10:02;99365.56;;;20.17;65.20
26531;BME280;14201;43.188;24.160;2023-07-29T00:12:28;99365.53;;;20.22;65.16
26531;BME280;14201;43.188;24.160;2023-07-29T00:14:55;99357.63;;;20.20;64.60
26531;BME280;14201;43.188;24.160;2023-07-29T00:17:20;99357.63;;;20.17;65.08
26531;BME280;14201;43.188;24.160;2023-07-29T00:19:46;99358.53;;;20.16;65.13
26531;BME280;14201;43.188;24.160;2023-07-29T00:22:11;99361.16;;;20.15;65.15
26531;BME280;14201;43.188;24.160;2023-07-29T00:24:37;99371.75;;;20.04;65.72
26531;BME280;14201;43.188;24.160;2023-07-29T00:27:02;99364.72;;;19.97;64.05
26531;BME280;14201;43.188;24.160;2023-07-29T00:29:28;99365.59;;;19.90;64.27
26531;BME280;14201;43.188;24.160;2023-07-29T00:31:53;99362.03;;;19.75;64.97
26531;BME280;14201;43.188;24.160;2023-07-29T00:34:18;99360.25;;;19.60;65.80
26531;BME280;14201;43.188;24.160;2023-07-29T00:36:47;99360.25;;;19.59;65.90
26531;BME280;14201;43.188;24.160;2023-07-29T00:39:13;99362.91;;;19.54;67.20
26531;BME280;14201;43.188;24.160;2023-07-29T00:41:38;99360.22;;;19.43;67.60
26531;BME280;14201;43.188;24.160;2023-07-29T00:44:04;99355.81;;;19.42;67.32
26531;BME280;14201;43.188;24.160;2023-07-29T00:46:29;99360.22;;;19.45;67.20
26531;BME280;14201;43.188;24.160;2023-07-29T00:48:55;99354.06;;;19.47;67.56
26531;BME280;14201;43.188;24.160;2023-07-29T00:51:20;99360.22;;;19.39;67.81
26531;BME280;14201;43.188;24.160;2023-07-29T00:53:46;99361.94;;;19.21;68.29
26531;BME280;14201;43.188;24.160;2023-07-29T00:56:11;99359.28;;;19.12;68.75
26531;BME280;14201;43.188;24.160;2023-07-29T00:58:37;99355.75;;;19.21;68.95
26531;BME280;14201;43.188;24.160;2023-07-29T01:01:02;99359.28;;;19.18;68.50
26531;BME280;14201;43.188;24.160;2023-07-29T01:03:28;99361.03;;;19.13;68.65
26531;BME280;14201;43.188;24.160;2023-07-29T01:05:58;99359.22;;;19.03;68.50
26531;BME280;14201;43.188;24.160;2023-07-29T01:08:29;99355.72;;;19.05;68.28
26531;BME280;14201;43.188;24.160;2023-07-29T01:13:53;99361.81;;;18.89;69.59
26531;BME280;14201;43.188;24.160;2023-07-29T01:16:23;99362.75;;;18.94;68.84
26531;BME280;14201;43.188;24.160;2023-07-29T01:18:50;99355.66;;;18.92;68.66
26531;BME280;14201;43.188;24.160;2023-07-29T01:21:18;99350.38;;;18.90;69.09
26531;BME280;14201;43.188;24.160;2023-07-29T01:23:45;99354.78;;;18.85;69.16
26531;BME280;14201;43.188;24.160;2023-07-29T01:26:11;99356.50;;;18.80;69.14
26531;BME280;14201;43.188;24.160;2023-07-29T01:28:36;99359.09;;;18.74;69.21
26531;BME280;14201;43.188;24.160;2023-07-29T01:33:39;99359.06;;;18.69;69.34
26531;BME280;14201;43.188;24.160;2023-07-29T01:36:27;99357.28;;;18.65;69.18
26531;BME280;14201;43.188;24.160;2023-07-29T01:38:51;99359.03;;;18.60;69.86
26531;BME280;14201;43.188;24.160;2023-07-29T01:41:18;99360.75;;;18.56;69.69
26531;BME280;14201;43.188;24.160;2023-07-29T01:43:44;99361.59;;;18.50;70.11
26531;BME280;14201;43.188;24.160;2023-07-29T01:46:10;99358.91;;;18.38;70.69
26531;BME280;14201;43.188;24.160;2023-07-29T01:48:36;99357.00;;;18.13;71.29
26531;BME280;14201;43.188;24.160;2023-07-29T01:51:02;99360.41;;;18.02;71.79
26531;BME280;14201;43.188;24.160;2023-07-29T01:53:28;99351.50;;;17.86;72.34
26531;BME280;14201;43.188;24.160;2023-07-29T01:55:53;99355.91;;;17.86;72.57
26531;BME280;14201;43.188;24.160;2023-07-29T01:58:19;99361.19;;;17.90;72.50
26531;BME280;14201;43.188;24.160;2023-07-29T02:00:44;99364.75;;;17.96;71.96
26531;BME280;14201;43.188;24.160;2023-07-29T02:03:09;99362.97;;;17.95;72.37
26531;BME280;14201;43.188;24.160;2023-07-29T02:05:35;99365.69;;;18.02;72.40
26531;BME280;14201;43.188;24.160;2023-07-29T02:08:00;99365.72;;;18.07;71.98
26531;BME280;14201;43.188;24.160;2023-07-29T02:10:25;99354.38;;;18.19;71.69
26531;BME280;14201;43.188;24.160;2023-07-29T02:12:51;99357.03;;;18.22;71.70
26531;BME280;14201;43.188;24.160;2023-07-29T02:15:16;99356.16;;;18.23;71.25
26531;BME280;14201;43.188;24.160;2023-07-29T02:17:42;99360.56;;;18.21;71.16
26531;BME280;14201;43.188;24.160;2023-07-29T02:20:08;99353.47;;;18.14;71.39
26531;BME280;14201;43.188;24.160;2023-07-29T02:22:33;99364.81;;;18.06;71.71
26531;BME280;14201;43.188;24.160;2023-07-29T02:24:59;99367.47;;;18.06;71.96
26531;BME280;14201;43.188;24.160;2023-07-29T02:27:24;99360.41;;;17.99;72.38
26531;BME280;14201;43.188;24.160;2023-07-29T02:29:52;99364.84;;;18.05;72.20
26531;BME280;14201;43.188;24.160;2023-07-29T02:32:17;99358.66;;;18.04;72.20
26531;BME280;14201;43.188;24.160;2023-07-29T02:34:43;99353.34;;;17.95;72.48
26531;BME280;14201;43.188;24.160;2023-07-29T02:37:08;99357.69;;;17.90;72.79
26531;BME280;14201;43.188;24.160;2023-07-29T02:39:34;99362.06;;;17.91;73.03
26531;BME280;14201;43.188;24.160;2023-07-29T02:41:59;99355.94;;;17.92;73.03
26531;BME280;14201;43.188;24.160;2023-07-29T02:44:25;99357.72;;;17.96;73.12
26531;BME280;14201;43.188;24.160;2023-07-29T02:46:50;99356.88;;;17.97;73.02
26531;BME280;14201;43.188;24.160;2023-07-29T02:49:17;99361.16;;;17.89;73.63
26531;BME280;14201;43.188;24.160;2023-07-29T02:51:43;99366.44;;;17.89;73.67
26531;BME280;14201;43.188;24.160;2023-07-29T02:54:08;99369.16;;;17.95;73.64
26531;BME280;14201;43.188;24.160;2023-07-29T02:56:33;99370.91;;;17.96;73.51
26531;BME280;14201;43.188;24.160;2023-07-29T02:58:59;99368.25;;;17.92;73.42
26531;BME280;14201;43.188;24.160;2023-07-29T03:01:25;99374.38;;;17.92;73.44
26531;BME280;14201;43.188;24.160;2023-07-29T03:03:50;99381.44;;;17.96;72.81
26531;BME280;14201;43.188;24.160;2023-07-29T03:06:16;99378.81;;;17.96;72.89
26531;BME280;14201;43.188;24.160;2023-07-29T03:08:42;99385.94;;;18.08;72.06
26531;BME280;14201;43.188;24.160;2023-07-29T03:11:11;99384.22;;;18.13;72.23
26531;BME280;14201;43.188;24.160;2023-07-29T03:13:37;99386.81;;;18.07;71.98
26531;BME280;14201;43.188;24.160;2023-07-29T03:16:36;99378.78;;;17.93;72.32
26531;BME280;14201;43.188;24.160;2023-07-29T03:18:54;99378.56;;;17.71;72.81
26531;BME280;14201;43.188;24.160;2023-07-29T03:21:20;99382.91;;;17.66;73.08
26531;BME280;14201;43.188;24.160;2023-07-29T03:23:45;99378.63;;;17.79;72.65
26531;BME280;14201;43.188;24.160;2023-07-29T03:26:10;99371.69;;;17.84;72.56
26531;BME280;14201;43.188;24.160;2023-07-29T03:28:37;99364.59;;;17.83;72.77
26531;BME280;14201;43.188;24.160;2023-07-29T03:31:03;99372.59;;;17.88;73.03
26531;BME280;14201;43.188;24.160;2023-07-29T03:33:28;99373.53;;;17.95;72.66
26531;BME280;14201;43.188;24.160;2023-07-29T03:35:54;99384.06;;;17.95;73.29
26531;BME280;14201;43.188;24.160;2023-07-29T03:38:19;99375.78;;;17.56;74.81
26531;BME280;14201;43.188;24.160;2023-07-29T03:40:45;99387.91;;;17.37;76.17
26531;BME280;14201;43.188;24.160;2023-07-29T03:43:10;99384.47;;;17.46;75.93
26531;BME280;14201;43.188;24.160;2023-07-29T03:45:36;99383.69;;;17.56;75.49
26531;BME280;14201;43.188;24.160;2023-07-29T03:48:01;99387.25;;;17.61;75.51
26531;BME280;14201;43.188;24.160;2023-07-29T03:50:27;99389.19;;;17.82;75.13
26531;BME280;14201;43.188;24.160;2023-07-29T03:52:53;99394.63;;;17.98;74.28
26531;BME280;14201;43.188;24.160;2023-07-29T03:55:18;99400.84;;;18.06;74.24
26531;BME280;14201;43.188;24.160;2023-07-29T03:57:44;99401.91;;;18.26;73.85
26531;BME280;14201;43.188;24.160;2023-07-29T04:00:09;99398.44;;;18.37;72.93
26531;BME280;14201;43.188;24.160;2023-07-29T04:02:35;99406.50;;;18.60;73.20
26531;BME280;14201;43.188;24.160;2023-07-29T04:05:03;99405.69;;;18.72;71.86
26531;BME280;14201;43.188;24.160;2023-07-29T04:07:28;99410.22;;;18.86;71.29
26531;BME280;14201;43.188;24.160;2023-07-29T04:09:54;99412.00;;;18.91;72.61
26531;BME280;14201;43.188;24.160;2023-07-29T04:12:19;99415.56;;;19.11;71.79
26531;BME280;14201;43.188;24.160;2023-07-29T04:14:46;99419.16;;;19.24;71.65
26531;BME280;14201;43.188;24.160;2023-07-29T04:17:12;99418.34;;;19.48;70.38
26531;BME280;14201;43.188;24.160;2023-07-29T04:19:37;99417.56;;;19.74;69.11
26531;BME280;14201;43.188;24.160;2023-07-29T04:22:03;99420.22;;;19.80;69.77
26531;BME280;14201;43.188;24.160;2023-07-29T04:24:28;99420.22;;;20.06;69.41
26531;BME280;14201;43.188;24.160;2023-07-29T04:26:53;99417.59;;;20.26;68.66
26531;BME280;14201;43.188;24.160;2023-07-29T04:29:19;99417.56;;;20.29;68.59
26531;BME280;14201;43.188;24.160;2023-07-29T04:31:44;99394.66;;;20.19;68.37
26531;BME280;14201;43.188;24.160;2023-07-29T04:34:10;99416.69;;;20.35;69.31
26531;BME280;14201;43.188;24.160;2023-07-29T04:36:35;99420.19;;;20.35;69.19
26531;BME280;14201;43.188;24.160;2023-07-29T04:39:01;99416.69;;;20.04;69.74
26531;BME280;14201;43.188;24.160;2023-07-29T04:41:26;99420.19;;;19.83;70.86
26531;BME280;14201;43.188;24.160;2023-07-29T04:43:52;99417.56;;;20.04;70.63
26531;BME280;14201;43.188;24.160;2023-07-29T04:46:17;99411.41;;;20.05;71.13
26531;BME280;14201;43.188;24.160;2023-07-29T04:48:43;99407.88;;;20.08;70.70
26531;BME280;14201;43.188;24.160;2023-07-29T04:51:08;99414.06;;;20.24;70.81
26531;BME280;14201;43.188;24.160;2023-07-29T04:53:34;99405.22;;;20.31;70.96
26531;BME280;14201;43.188;24.160;2023-07-29T04:56:01;99406.97;;;20.35;68.39
26531;BME280;14201;43.188;24.160;2023-07-29T04:58:27;99406.94;;;20.58;69.40
26531;BME280;14201;43.188;24.160;2023-07-29T05:00:55;99405.13;;;20.82;68.28
26531;BME280;14201;43.188;24.160;2023-07-29T05:03:20;99402.41;;;21.11;66.71
26531;BME280;14201;43.188;24.160;2023-07-29T05:05:46;99404.97;;;21.30;67.11
26531;BME280;14201;43.188;24.160;2023-07-29T05:08:11;99409.34;;;21.38;67.33
26531;BME280;14201;43.188;24.160;2023-07-29T05:10:37;99409.25;;;21.58;67.07
26531;BME280;14201;43.188;24.160;2023-07-29T05:13:02;99405.47;;;21.92;65.36
26531;BME280;14201;43.188;24.160;2023-07-29T05:15:28;99400.91;;;22.11;63.79
26531;BME280;14201;43.188;24.160;2023-07-29T05:17:54;99402.47;;;22.36;64.09
26531;BME280;14201;43.188;24.160;2023-07-29T05:20:19;99407.47;;;22.67;63.56
26531;BME280;14201;43.188;24.160;2023-07-29T05:22:45;99402.78;;;22.89;62.04
26531;BME280;14201;43.188;24.160;2023-07-29T05:25:10;99409.00;;;22.90;60.59
26531;BME280;14201;43.188;24.160;2023-07-29T05:27:36;99407.22;;;22.92;59.87
26531;BME280;14201;43.188;24.160;2023-07-29T05:30:02;99413.28;;;23.02;59.93
26531;BME280;14201;43.188;24.160;2023-07-29T05:32:27;99412.31;;;23.10;59.97
26531;BME280;14201;43.188;24.160;2023-07-29T05:34:53;99406.81;;;23.24;58.43
26531;BME280;14201;43.188;24.160;2023-07-29T05:37:19;99388.31;;;23.18;58.75
26531;BME280;14201;43.188;24.160;2023-07-29T05:39:45;99405.66;;;23.45;58.18
26531;BME280;14201;43.188;24.160;2023-07-29T05:42:11;99408.06;;;23.64;57.39
26531;BME280;14201;43.188;24.160;2023-07-29T05:44:36;99413.09;;;23.85;56.75
26531;BME280;14201;43.188;24.160;2023-07-29T05:47:02;99409.13;;;24.11;56.22
26531;BME280;14201;43.188;24.160;2023-07-29T05:49:28;99414.06;;;24.34;54.22
26531;BME280;14201;43.188;24.160;2023-07-29T05:51:53;99407.63;;;24.46;53.18
26531;BME280;14201;43.188;24.160;2023-07-29T05:54:19;99404.47;;;24.73;53.82
26531;BME280;14201;43.188;24.160;2023-07-29T05:56:45;99407.59;;;24.97;52.81
26531;BME280;14201;43.188;24.160;2023-07-29T05:59:11;99413.22;;;25.27;53.57
26531;BME280;14201;43.188;24.160;2023-07-29T06:01:36;99406.34;;;25.57;52.12
26531;BME280;14201;43.188;24.160;2023-07-29T06:04:02;99418.19;;;25.83;51.40
26531;BME280;14201;43.188;24.160;2023-07-29T06:06:28;99419.50;;;26.04;50.10
26531;BME280;14201;43.188;24.160;2023-07-29T06:08:53;99422.50;;;26.26;49.52
26531;BME280;14201;43.188;24.160;2023-07-29T06:11:19;99414.53;;;26.57;48.09
26531;BME280;14201;43.188;24.160;2023-07-29T06:13:47;99418.00;;;26.95;47.76
26531;BME280;14201;43.188;24.160;2023-07-29T06:16:12;99418.88;;;27.27;46.59
26531;BME280;14201;43.188;24.160;2023-07-29T06:18:38;99416.44;;;27.49;46.45
26531;BME280;14201;43.188;24.160;2023-07-29T06:21:03;99414.97;;;27.68;45.31
26531;BME280;14201;43.188;24.160;2023-07-29T06:23:33;99415.34;;;27.84;45.01
26531;BME280;14201;43.188;24.160;2023-07-29T06:25:59;99413.47;;;27.88;44.86
26531;BME280;14201;43.188;24.160;2023-07-29T06:28:26;99416.41;;;28.07;45.87
26531;BME280;14201;43.188;24.160;2023-07-29T06:30:52;99409.50;;;28.26;44.54
26531;BME280;14201;43.188;24.160;2023-07-29T06:33:18;99412.38;;;28.47;44.18
26531;BME280;14201;43.188;24.160;2023-07-29T06:35:43;99417.34;;;28.59;45.48
26531;BME280;14201;43.188;24.160;2023-07-29T06:38:09;99400.38;;;28.84;43.86
26531;BME280;14201;43.188;24.160;2023-07-29T06:40:35;99413.22;;;28.99;43.36
26531;BME280;14201;43.188;24.160;2023-07-29T06:43:00;99406.66;;;29.08;42.51
26531;BME280;14201;43.188;24.160;2023-07-29T06:45:26;99405.44;;;29.40;41.60
26531;BME280;14201;43.188;24.160;2023-07-29T06:47:52;99403.78;;;29.60;41.27
26531;BME280;14201;43.188;24.160;2023-07-29T06:50:17;99405.31;;;29.89;41.13
26531;BME280;14201;43.188;24.160;2023-07-29T06:52:43;99403.94;;;30.01;40.31
26531;BME280;14201;43.188;24.160;2023-07-29T06:55:09;99408.00;;;30.33;41.49
26531;BME280;14201;43.188;24.160;2023-07-29T06:57:34;99408.31;;;30.67;39.29
26531;BME280;14201;43.188;24.160;2023-07-29T07:00:00;99410.50;;;30.79;39.79
26531;BME280;14201;43.188;24.160;2023-07-29T07:02:26;99406.25;;;30.73;39.21
26531;BME280;14201;43.188;24.160;2023-07-29T07:04:52;99406.25;;;30.73;39.17
26531;BME280;14201;43.188;24.160;2023-07-29T07:07:18;99405.63;;;30.67;38.67
26531;BME280;14201;43.188;24.160;2023-07-29T07:09:43;99405.75;;;30.84;38.50
26531;BME280;14201;43.188;24.160;2023-07-29T07:12:09;99395.28;;;30.98;38.13
26531;BME280;14201;43.188;24.160;2023-07-29T07:14:34;99406.19;;;30.95;36.67
26531;BME280;14201;43.188;24.160;2023-07-29T07:17:00;99405.56;;;30.89;37.56
26531;BME280;14201;43.188;24.160;2023-07-29T07:19:26;99412.25;;;31.00;35.82
26531;BME280;14201;43.188;24.160;2023-07-29T07:21:52;99409.94;;;31.12;36.56
26531;BME280;14201;43.188;24.160;2023-07-29T07:24:17;99400.41;;;31.43;35.44
26531;BME280;14201;43.188;24.160;2023-07-29T07:26:43;99407.03;;;31.73;33.19
26531;BME280;14201;43.188;24.160;2023-07-29T07:29:08;99402.44;;;31.75;32.84
26531;BME280;14201;43.188;24.160;2023-07-29T07:31:34;99406.28;;;31.89;32.98
26531;BME280;14201;43.188;24.160;2023-07-29T07:34:00;99397.75;;;31.98;32.52
26531;BME280;14201;43.188;24.160;2023-07-29T07:36:27;99405.38;;;32.26;31.70
26531;BME280;14201;43.188;24.160;2023-07-29T07:38:53;99401.81;;;32.61;30.83
26531;BME280;14201;43.188;24.160;2023-07-29T07:41:18;99392.72;;;32.96;30.12
26531;BME280;14201;43.188;24.160;2023-07-29T07:43:44;99401.59;;;33.32;30.40
26531;BME280;14201;43.188;24.160;2023-07-29T07:46:10;99405.03;;;33.67;30.45
26531;BME280;14201;43.188;24.160;2023-07-29T07:48:36;99402.66;;;34.09;29.78
26531;BME280;14201;43.188;24.160;2023-07-29T07:51:12;99402.69;;;34.39;29.68
26531;BME280;14201;43.188;24.160;2023-07-29T07:53:38;99408.53;;;34.62;29.07
26531;BME280;14201;43.188;24.160;2023-07-29T07:56:04;99401.44;;;34.15;28.45
26531;BME280;14201;43.188;24.160;2023-07-29T07:58:30;99405.22;;;33.80;28.55
26531;BME280;14201;43.188;24.160;2023-07-29T08:01:03;99402.75;;;34.07;28.54
26531;BME280;14201;43.188;24.160;2023-07-29T08:03:29;99408.47;;;34.33;28.90
26531;BME280;14201;43.188;24.160;2023-07-29T08:05:55;99398.94;;;34.56;30.42
26531;BME280;14201;43.188;24.160;2023-07-29T08:08:20;99395.63;;;34.67;30.33
26531;BME280;14201;43.188;24.160;2023-07-29T08:10:46;99392.47;;;34.75;30.19
26531;BME280;14201;43.188;24.160;2023-07-29T08:13:11;99391.41;;;35.06;28.16
26531;BME280;14201;43.188;24.160;2023-07-29T08:15:37;99398.09;;;35.29;28.64
26531;BME280;14201;43.188;24.160;2023-07-29T08:18:02;99391.03;;;35.41;27.42
26531;BME280;14201;43.188;24.160;2023-07-29T08:20:28;99399.44;;;35.22;28.03
26531;BME280;14201;43.188;24.160;2023-07-29T08:22:54;99399.50;;;34.91;27.54
26531;BME280;14201;43.188;24.160;2023-07-29T08:25:20;99396.03;;;34.45;28.41
26531;BME280;14201;43.188;24.160;2023-07-29T08:27:46;99394.09;;;34.77;29.15
26531;BME280;14201;43.188;24.160;2023-07-29T08:30:11;99396.91;;;35.04;28.82
26531;BME280;14201;43.188;24.160;2023-07-29T08:32:37;99389.47;;;35.37;28.90
26531;BME280;14201;43.188;24.160;2023-07-29T08:35:03;99390.19;;;35.82;29.19
26531;BME280;14201;43.188;24.160;2023-07-29T08:37:29;99392.97;;;36.22;27.58
26531;BME280;14201;43.188;24.160;2023-07-29T08:39:54;99395.84;;;36.59;26.25
26531;BME280;14201;43.188;24.160;2023-07-29T08:42:21;99394.56;;;36.90;26.11
26531;BME280;14201;43.188;24.160;2023-07-29T08:44:49;99391.75;;;37.17;25.50
26531;BME280;14201;43.188;24.160;2023-07-29T08:47:18;99389.56;;;37.10;24.86
26531;BME280;14201;43.188;24.160;2023-07-29T08:49:45;99392.38;;;36.70;24.68
26531;BME280;14201;43.188;24.160;2023-07-29T08:52:12;99390.94;;;35.84;24.71
26531;BME280;14201;43.188;24.160;2023-07-29T08:54:39;99373.75;;;35.56;25.68
26531;BME280;14201;43.188;24.160;2023-07-29T08:57:06;99376.78;;;36.06;25.66
26531;BME280;14201;43.188;24.160;2023-07-29T08:59:32;99381.72;;;36.54;26.06
26531;BME280;14201;43.188;24.160;2023-07-29T09:01:58;99366.97;;;36.83;25.34
26531;BME280;14201;43.188;24.160;2023-07-29T09:04:24;99369.13;;;37.04;25.67
26531;BME280;14201;43.188;24.160;2023-07-29T09:06:50;99374.88;;;37.12;25.26
26531;BME280;14201;43.188;24.160;2023-07-29T09:09:16;99371.25;;;37.50;24.84
26531;BME280;14201;43.188;24.160;2023-07-29T09:11:42;99370.31;;;37.75;24.70
26531;BME280;14201;43.188;24.160;2023-07-29T09:14:09;99375.84;;;37.98;22.88
26531;BME280;14201;43.188;24.160;2023-07-29T09:16:35;99377.31;;;38.15;24.05
26531;BME280;14201;43.188;24.160;2023-07-29T09:19:02;99380.09;;;38.26;22.59
26531;BME280;14201;43.188;24.160;2023-07-29T09:21:29;99378.00;;;38.06;24.62
26531;BME280;14201;43.188;24.160;2023-07-29T09:23:55;99378.97;;;38.29;22.27
26531;BME280;14201;43.188;24.160;2023-07-29T09:26:26;99360.38;;;38.47;22.92
26531;BME280;14201;43.188;24.160;2023-07-29T09:28:56;99367.31;;;38.51;21.67
26531;BME280;14201;43.188;24.160;2023-07-29T09:31:27;99369.81;;;38.54;22.19
26531;BME280;14201;43.188;24.160;2023-07-29T09:34:02;99354.50;;;38.64;22.28
26531;BME280;14201;43.188;24.160;2023-07-29T09:36:30;99358.88;;;37.83;22.69
26531;BME280;14201;43.188;24.160;2023-07-29T09:38:57;99345.38;;;37.44;24.08
26531;BME280;14201;43.188;24.160;2023-07-29T09:41:27;99348.97;;;36.82;23.50
26531;BME280;14201;43.188;24.160;2023-07-29T09:44:03;99351.78;;;36.94;24.66
26531;BME280;14201;43.188;24.160;2023-07-29T09:46:37;99346.94;;;37.36;25.73
26531;BME280;14201;43.188;24.160;2023-07-29T09:49:04;99347.94;;;37.72;23.26
26531;BME280;14201;43.188;24.160;2023-07-29T09:51:29;99350.59;;;38.09;23.44
26531;BME280;14201;43.188;24.160;2023-07-29T09:53:55;99353.25;;;38.33;22.01
26531;BME280;14201;43.188;24.160;2023-07-29T09:56:25;99356.00;;;38.44;22.86
26531;BME280;14201;43.188;24.160;2023-07-29T09:58:52;99346.78;;;38.58;22.88
26531;BME280;14201;43.188;24.160;2023-07-29T10:01:18;99348.19;;;38.28;22.05
26531;BME280;14201;43.188;24.160;2023-07-29T10:03:47;99346.47;;;38.38;21.37
26531;BME280;14201;43.188;24.160;2023-07-29T10:06:14;99337.53;;;38.72;22.67
26531;BME280;14201;43.188;24.160;2023-07-29T10:08:40;99332.22;;;39.04;22.13
26531;BME280;14201;43.188;24.160;2023-07-29T10:11:08;99335.44;;;39.32;22.87
26531;BME280;14201;43.188;24.160;2023-07-29T10:13:35;99337.41;;;39.52;22.20
26531;BME280;14201;43.188;24.160;2023-07-29T10:16:02;99335.19;;;38.90;21.39
26531;BME280;14201;43.188;24.160;2023-07-29T10:18:29;99328.16;;;37.57;23.51
26531;BME280;14201;43.188;24.160;2023-07-29T10:20:57;99322.81;;;37.92;22.56
26531;BME280;14201;43.188;24.160;2023-07-29T10:23:25;99333.44;;;37.95;22.57
26531;BME280;14201;43.188;24.160;2023-07-29T10:26:03;99334.06;;;38.23;21.81
26531;BME280;14201;43.188;24.160;2023-07-29T10:28:30;99320.31;;;38.71;21.80
26531;BME280;14201;43.188;24.160;2023-07-29T10:30:57;99318.09;;;39.10;21.71
26531;BME280;14201;43.188;24.160;2023-07-29T10:33:23;99329.00;;;39.44;21.67
26531;BME280;14201;43.188;24.160;2023-07-29T10:35:49;99315.28;;;39.67;22.17
26531;BME280;14201;43.188;24.160;2023-07-29T10:38:15;99315.19;;;40.01;21.82
26531;BME280;14201;43.188;24.160;2023-07-29T10:40:45;99311.31;;;40.24;22.23
26531;BME280;14201;43.188;24.160;2023-07-29T10:43:11;99313.72;;;40.18;20.65
26531;BME280;14201;43.188;24.160;2023-07-29T10:45:38;99312.91;;;38.62;21.74
26531;BME280;14201;43.188;24.160;2023-07-29T10:48:10;99302.19;;;38.48;21.70
26531;BME280;14201;43.188;24.160;2023-07-29T10:50:35;99308.00;;;37.72;22.15
26531;BME280;14201;43.188;24.160;2023-07-29T10:53:01;99298.47;;;37.30;23.48
26531;BME280;14201;43.188;24.160;2023-07-29T10:55:28;99301.91;;;37.93;23.50
26531;BME280;14201;43.188;24.160;2023-07-29T10:58:13;99293.38;;;37.97;22.57
26531;BME280;14201;43.188;24.160;2023-07-29T11:00:41;99291.06;;;38.39;23.25
26531;BME280;14201;43.188;24.160;2023-07-29T11:03:07;99293.09;;;38.71;23.76
26531;BME280;14201;43.188;24.160;2023-07-29T11:05:49;99295.31;;;39.11;23.64
26531;BME280;14201;43.188;24.160;2023-07-29T11:08:18;99296.50;;;39.41;22.87
26531;BME280;14201;43.188;24.160;2023-07-29T11:10:44;99298.13;;;39.76;23.62
26531;BME280;14201;43.188;24.160;2023-07-29T11:13:22;99295.81;;;40.04;21.95
26531;BME280;14201;43.188;24.160;2023-07-29T11:15:47;99292.69;;;40.29;21.29
26531;BME280;14201;43.188;24.160;2023-07-29T11:18:15;99285.44;;;40.40;20.99
26531;BME280;14201;43.188;24.160;2023-07-29T11:20:41;99283.97;;;40.14;22.60
26531;BME280;14201;43.188;24.160;2023-07-29T11:23:06;99283.34;;;39.57;21.99
26531;BME280;14201;43.188;24.160;2023-07-29T11:25:32;99276.34;;;39.21;25.37
26531;BME280;14201;43.188;24.160;2023-07-29T11:28:01;99273.66;;;38.76;22.52
26531;BME280;14201;43.188;24.160;2023-07-29T11:30:26;99280.31;;;38.49;22.99
26531;BME280;14201;43.188;24.160;2023-07-29T11:32:53;99273.66;;;38.76;22.79
26531;BME280;14201;43.188;24.160;2023-07-29T11:35:19;99272.06;;;38.62;22.80
26531;BME280;14201;43.188;24.160;2023-07-29T11:37:51;99265.66;;;38.16;22.88
26531;BME280;14201;43.188;24.160;2023-07-29T11:40:17;99267.41;;;37.93;22.94
26531;BME280;14201;43.188;24.160;2023-07-29T11:42:42;99261.50;;;37.99;24.00
26531;BME280;14201;43.188;24.160;2023-07-29T11:45:08;99253.44;;;38.33;22.68
26531;BME280;14201;43.188;24.160;2023-07-29T11:47:34;99258.91;;;38.67;23.10
26531;BME280;14201;43.188;24.160;2023-07-29T11:50:02;99251.97;;;39.08;23.54
26531;BME280;14201;43.188;24.160;2023-07-29T11:52:28;99252.88;;;39.41;22.34
26531;BME280;14201;43.188;24.160;2023-07-29T11:54:54;99252.28;;;39.70;22.26
26531;BME280;14201;43.188;24.160;2023-07-29T11:57:19;99251.31;;;39.71;20.87
26531;BME280;14201;43.188;24.160;2023-07-29T11:59:45;99243.81;;;38.97;22.74
26531;BME280;14201;43.188;24.160;2023-07-29T12:02:12;99250.03;;;39.43;22.90
26531;BME280;14201;43.188;24.160;2023-07-29T12:04:38;99234.72;;;39.63;22.31
26531;BME280;14201;43.188;24.160;2023-07-29T12:07:04;99247.75;;;39.91;21.19
26531;BME280;14201;43.188;24.160;2023-07-29T12:09:31;99238.41;;;39.29;21.33
26531;BME280;14201;43.188;24.160;2023-07-29T12:11:57;99234.88;;;38.16;23.61
26531;BME280;14201;43.188;24.160;2023-07-29T12:14:25;99229.22;;;38.53;23.57
26531;BME280;14201;43.188;24.160;2023-07-29T12:16:50;99221.75;;;38.77;22.07
26531;BME280;14201;43.188;24.160;2023-07-29T12:19:17;99218.69;;;38.59;22.98
26531;BME280;14201;43.188;24.160;2023-07-29T12:21:43;99220.16;;;38.41;22.85
26531;BME280;14201;43.188;24.160;2023-07-29T12:24:09;99215.84;;;38.61;22.99
26531;BME280;14201;43.188;24.160;2023-07-29T12:26:37;99216.31;;;38.77;23.76
26531;BME280;14201;43.188;24.160;2023-07-29T12:29:13;99215.31;;;38.90;23.52
26531;BME280;14201;43.188;24.160;2023-07-29T12:31:38;99219.75;;;39.13;22.64
26531;BME280;14201;43.188;24.160;2023-07-29T12:34:04;99218.31;;;38.75;21.76
26531;BME280;14201;43.188;24.160;2023-07-29T12:36:43;99216.09;;;38.58;21.43
26531;BME280;14201;43.188;24.160;2023-07-29T12:39:19;99211.03;;;38.65;22.48
26531;BME280;14201;43.188;24.160;2023-07-29T12:41:46;99210.75;;;38.90;23.27
26531;BME280;14201;43.188;24.160;2023-07-29T12:44:11;99209.16;;;38.31;22.58
26531;BME280;14201;43.188;24.160;2023-07-29T12:46:37;99207.16;;;38.90;24.33
26531;BME280;14201;43.188;24.160;2023-07-29T12:49:02;99215.50;;;38.54;21.74
26531;BME280;14201;43.188;24.160;2023-07-29T12:51:27;99212.38;;;38.70;22.69